Flight Track Log - Related Links

Times and Time Zones

All times are in EST time to prevent confusion due to time zone crossing. See the KAL1335 flight status page for this flight to view local times or setup timezone preferences in your user account.

Time Position Orientation Groundspeed Altitude Reporting Facility
EST Latitude Longitude Course Direction KTS MPH feet Rate Location/Type
Fri 11:46:00 PM 37.4733 126.8173 166° South  Level Estimated
Fri 11:47:00 PM 37.3882 126.8440 166° South  Level Estimated
Fri 11:48:00 PM 37.3126 126.8676 166° South  Level Estimated
Fri 11:49:00 PM 37.2370 126.8912 166° South  Level Estimated
Fri 11:50:00 PM 37.1614 126.9148 166° South  Level Estimated
Fri 11:51:00 PM 37.0858 126.9383 166° South  Level Estimated
Fri 11:52:00 PM 37.0101 126.9617 166° South  Level Estimated
Fri 11:53:00 PM 36.9345 126.9852 166° South  Level Estimated
Fri 11:54:00 PM 36.8466 127.0123 166° South  Level Estimated
Fri 11:55:00 PM 36.7588 127.0394 166° South  Level Estimated
Fri 11:56:00 PM 36.6710 127.0664 166° South  Level Estimated
Fri 11:57:00 PM 36.5831 127.0933 166° South  Level Estimated
Fri 11:58:00 PM 36.4952 127.1202 166° South  Level Estimated
Fri 11:59:00 PM 36.4074 127.1470 166° South  Level Estimated
Sat 12:00:00 AM 36.3195 127.1738 166° South  Level Estimated
Sat 12:01:00 AM 36.2316 127.2005 166° South  Level Estimated
Sat 12:02:00 AM 36.1437 127.2271 166° South  Level Estimated
Sat 12:03:00 AM 36.0558 127.2537 166° South  Level Estimated
Sat 12:04:00 AM 35.9679 127.2802 166° South  Level Estimated
Sat 12:05:00 AM 35.8800 127.3067 166° South  Level Estimated
Sat 12:06:00 AM 35.7921 127.3331 166° South  Level Estimated
Sat 12:07:00 AM 35.7042 127.3594 166° South  Level Estimated
Sat 12:08:00 AM 35.6163 127.3857 166° South  Level Estimated
Sat 12:09:00 AM 35.5284 127.4119 166° South  Level Estimated
Sat 12:10:00 AM 35.4404 127.4381 166° South  Level Estimated
Sat 12:11:00 AM 35.3525 127.4642 166° South  Level Estimated
Sat 12:12:00 AM 35.2646 127.4903 166° South  Level Estimated
Sat 12:13:00 AM 35.1766 127.5163 166° South  Level Estimated
Sat 12:14:00 AM 35.0887 127.5422 166° South  Level Estimated
Sat 12:15:00 AM 35.0007 127.5681 166° South  Level Estimated
Sat 12:16:00 AM 34.9127 127.5939 166° South  Level Estimated
Sat 12:17:00 AM 34.8398 127.6153 166° South  Level Estimated
Sat 12:18:00 AM 34.8398 127.6153 180° South  Level Estimated
Sat 12:19:00 AM 34.8398 127.6153 180° South  Level Estimated
Sat 12:20:00 AM 34.8398 127.6153 180° South  Level Estimated
Sat 12:21:00 AM 34.8398 127.6153 180° South  Level Estimated

Login

Don't have an account? Register now (free) for customized features, flight alerts, and more!